Azalea Ace — A8ZJ6 — position and weather

sailwx.info

Track history (hours):
 
Tides and Currents Weather Stations Pressure Air Temp Water Temp Dewpoint Dewpoint Depression Visibility Wind Speed Wind Dir Waves Ship Positions

Azalea Ace

Last reported at 2014-Aug-15 13:33 UTC. Time now 2014-Aug-21 12:10 UTC.
Position S 36°28' E 175°37'.

Length 180 m; draft 8.1 m.

Type: Ship. MMSI: 636015228.

Date/timePositionNaut miles runAvg speedWind from/ knotsBaromVisibWave heightAir tempDewpointWater temp
2014-Aug-15 13:33S 36°28' E 175°37'1918.7
2014-Aug-15 12:33S 36°26' E 175°14'1918.9
2014-Aug-15 11:33S 36°39' E 174°56'1211.6
2014-Aug-15 10:33S 36°49' E 174°50'3 2.7
2014-Aug-15 09:29S 36°50' E 174°46'0 0.0
2014-Aug-15 08:29S 36°50' E 174°46'0 0.0
2014-Aug-15 02:29S 36°50' E 174°46'0 0.0
2014-Aug-15 01:29S 36°50' E 174°46'0 0.0
2014-Aug-15 00:29S 36°50' E 174°46'0 0.0
2014-Aug-14 23:29S 36°50' E 174°46'0 0.0
2014-Aug-14 22:29S 36°50' E 174°46'0 0.0
2014-Aug-14 21:29S 36°50' E 174°46'0 0.0
2014-Aug-14 20:29S 36°50' E 174°46'0 0.0
2014-Aug-14 19:29S 36°50' E 174°46'0 0.0
2014-Aug-14 18:29S 36°50' E 174°46'0 0.0
2014-Aug-14 17:29S 36°50' E 174°46'0 0.0
2014-Aug-14 16:29S 36°50' E 174°46'0 0.0
2014-Aug-14 15:29S 36°50' E 174°46'0 0.0
2014-Aug-14 14:29S 36°50' E 174°46'0 0.0
2014-Aug-14 13:29S 36°50' E 174°46'0 0.0
2014-Aug-14 12:29S 36°50' E 174°46'0 0.0
2014-Aug-14 11:29S 36°50' E 174°46'0 0.0
2014-Aug-14 10:29S 36°50' E 174°46'0 0.0
2014-Aug-14 09:29S 36°50' E 174°46'0 0.0
2014-Aug-14 08:29S 36°50' E 174°46'0 0.0
2014-Aug-14 07:29S 36°50' E 174°46'0 0.0
2014-Aug-14 06:29S 36°50' E 174°46'0 0.0
2014-Aug-14 05:29S 36°50' E 174°46'0 0.0
2014-Aug-14 04:29S 36°50' E 174°46'0 0.0
2014-Aug-14 03:29S 36°50' E 174°46'0 0.0
2014-Aug-14 02:29S 36°50' E 174°46'0 0.0
2014-Aug-14 01:29S 36°50' E 174°46'0 0.0
2014-Aug-14 00:29S 36°50' E 174°46'0 0.0
2014-Aug-13 23:29S 36°50' E 174°46'3 3.4
2014-Aug-13 22:34S 36°49' E 174°50'7 7.2
2014-Aug-13 21:33S 36°42' E 174°53'10 9.9
2014-Aug-13 20:33S 36°33' E 174°58'8 8.0
2014-Aug-13 19:33S 36°25' E 174°59'9 8.7
2014-Aug-13 18:34S 36°17' E 174°59'  
Track history (hours):
 
Tides and Currents Weather Stations Pressure Air Temp Water Temp Dewpoint Dewpoint Depression Visibility Wind Speed Wind Dir Waves Ship Positions

Azalea Ace

Last reported at 2014-Aug-15 13:33 UTC. Time now 2014-Aug-21 12:10 UTC.
Position S 36°28' E 175°37'.

Length 180 m; draft 8.1 m.

Type: Ship. MMSI: 636015228.

Date/timePositionNaut miles runAvg speedWind from/ knotsBaromVisibWave heightAir tempDewpointWater temp
2014-Aug-15 13:33S 36°28' E 175°37'1918.7
2014-Aug-15 12:33S 36°26' E 175°14'1918.9
2014-Aug-15 11:33S 36°39' E 174°56'1211.6
2014-Aug-15 10:33S 36°49' E 174°50'3 2.7
2014-Aug-15 09:29S 36°50' E 174°46'0 0.0
2014-Aug-15 08:29S 36°50' E 174°46'0 0.0
2014-Aug-15 02:29S 36°50' E 174°46'0 0.0
2014-Aug-15 01:29S 36°50' E 174°46'0 0.0
2014-Aug-15 00:29S 36°50' E 174°46'0 0.0
2014-Aug-14 23:29S 36°50' E 174°46'0 0.0
2014-Aug-14 22:29S 36°50' E 174°46'0 0.0
2014-Aug-14 21:29S 36°50' E 174°46'0 0.0
2014-Aug-14 20:29S 36°50' E 174°46'0 0.0
2014-Aug-14 19:29S 36°50' E 174°46'0 0.0
2014-Aug-14 18:29S 36°50' E 174°46'0 0.0
2014-Aug-14 17:29S 36°50' E 174°46'0 0.0
2014-Aug-14 16:29S 36°50' E 174°46'0 0.0
2014-Aug-14 15:29S 36°50' E 174°46'0 0.0
2014-Aug-14 14:29S 36°50' E 174°46'0 0.0
2014-Aug-14 13:29S 36°50' E 174°46'0 0.0
2014-Aug-14 12:29S 36°50' E 174°46'0 0.0
2014-Aug-14 11:29S 36°50' E 174°46'0 0.0
2014-Aug-14 10:29S 36°50' E 174°46'0 0.0
2014-Aug-14 09:29S 36°50' E 174°46'0 0.0
2014-Aug-14 08:29S 36°50' E 174°46'0 0.0
2014-Aug-14 07:29S 36°50' E 174°46'0 0.0
2014-Aug-14 06:29S 36°50' E 174°46'0 0.0
2014-Aug-14 05:29S 36°50' E 174°46'0 0.0
2014-Aug-14 04:29S 36°50' E 174°46'0 0.0
2014-Aug-14 03:29S 36°50' E 174°46'0 0.0
2014-Aug-14 02:29S 36°50' E 174°46'0 0.0
2014-Aug-14 01:29S 36°50' E 174°46'0 0.0
2014-Aug-14 00:29S 36°50' E 174°46'0 0.0
2014-Aug-13 23:29S 36°50' E 174°46'3 3.4
2014-Aug-13 22:34S 36°49' E 174°50'7 7.2
2014-Aug-13 21:33S 36°42' E 174°53'10 9.9
2014-Aug-13 20:33S 36°33' E 174°58'8 8.0
2014-Aug-13 19:33S 36°25' E 174°59'9 8.7
2014-Aug-13 18:34S 36°17' E 174°59'  

Dump ship's entire track history